Time;durP1;ratioP1;P1;durP2;ratioP2;P2;SDS_P1;SDS_P2;PMS_P1;PMS_P2;Temp;Humidity;BMP_temperature;BMP_pressure;BME280_temperature;BME280_humidity;BME280_pressure;Samples;Min_cycle;Max_cycle;Signal;HPM_P1;HPM_P2
2022/09/05 00:02:17;;;;;;;28.65;15.10;;;;;;;;;;6207750;28;20045;-60
2022/09/05 00:05:51;;;;;;;27.42;16.33;;;;;;;;;;6209788;28;20049;-60
2022/09/05 00:09:43;;;;;;;25.15;14.98;;;;;;;;;;6208969;28;20046;-59
2022/09/05 00:13:08;;;;;;;27.58;15.65;;;;;;;;;;6210444;28;20493;-61
2022/09/05 00:17:09;;;;;;;26.88;15.50;;;;;;;;;;6210490;28;20050;-60
2022/09/05 00:20:38;;;;;;;30.63;17.42;;;;;;;;;;6145814;28;20115;-62
2022/09/05 00:23:59;;;;;;;29.00;16.67;;;;;;;;;;6209926;28;20050;-63
2022/09/05 00:27:29;;;;;;;32.92;16.63;;;;;;;;;;6207622;28;20041;-61
2022/09/05 00:31:20;;;;;;;30.50;18.63;;;;;;;;;;6210322;28;20049;-63
2022/09/05 00:34:55;;;;;;;34.30;19.42;;;;;;;;;;6209979;28;20057;-62
2022/09/05 00:38:17;;;;;;;34.42;19.38;;;;;;;;;;6209187;28;20041;-62
2022/09/05 00:41:37;;;;;;;34.42;17.83;;;;;;;;;;6208784;28;20042;-58
2022/09/05 00:45:01;;;;;;;32.97;17.80;;;;;;;;;;6212849;28;20054;-61
2022/09/05 00:48:50;;;;;;;30.38;16.88;;;;;;;;;;6209964;28;20037;-59
2022/09/05 00:52:28;;;;;;;33.55;18.08;;;;;;;;;;6206674;28;20050;-58
2022/09/05 00:55:56;;;;;;;33.45;17.95;;;;;;;;;;6210074;28;20046;-61
2022/09/05 00:59:27;;;;;;;39.03;20.83;;;;;;;;;;6209558;28;20045;-56
2022/09/05 01:03:01;;;;;;;37.45;21.05;;;;;;;;;;6207513;28;20034;-60
2022/09/05 01:07:01;;;;;;;34.13;20.52;;;;;;;;;;6208244;28;20042;-58
2022/09/05 01:10:44;;;;;;;31.92;18.90;;;;;;;;;;6208589;28;20058;-60
2022/09/05 01:14:22;;;;;;;30.25;17.70;;;;;;;;;;6209846;28;20041;-57
2022/09/05 01:18:14;;;;;;;26.80;15.55;;;;;;;;;;6208483;28;20132;-59
2022/09/05 01:21:54;;;;;;;26.17;14.60;;;;;;;;;;6207702;28;20136;-62
2022/09/05 01:25:51;;;;;;;29.02;15.85;;;;;;;;;;6209014;28;20069;-61
2022/09/05 01:29:16;;;;;;;25.30;15.27;;;;;;;;;;6135825;28;20045;-61
2022/09/05 01:32:50;;;;;;;28.00;15.35;;;;;;;;;;6208804;28;20030;-61
2022/09/05 01:36:40;;;;;;;25.80;13.88;;;;;;;;;;6209472;28;20175;-61
2022/09/05 01:40:43;;;;;;;27.55;14.13;;;;;;;;;;6209035;28;20070;-58
2022/09/05 01:44:29;;;;;;;22.83;13.85;;;;;;;;;;6185595;28;20098;-55
2022/09/05 01:48:14;;;;;;;19.75;13.13;;;;;;;;;;6200234;28;20424;-61
2022/09/05 01:51:59;;;;;;;24.98;14.07;;;;;;;;;;6217921;28;20061;-54
2022/09/05 01:55:44;;;;;;;24.00;14.02;;;;;;;;;;6209893;28;20054;-58
2022/09/05 01:59:25;;;;;;;22.38;13.13;;;;;;;;;;6219677;28;20034;-62
2022/09/05 02:03:02;;;;;;;27.92;14.18;;;;;;;;;;6219475;28;20026;-60
2022/09/05 02:06:33;;;;;;;30.27;14.38;;;;;;;;;;6214715;28;20493;-58
2022/09/05 02:10:08;;;;;;;27.33;13.95;;;;;;;;;;6213541;28;20062;-61
2022/09/05 02:13:33;;;;;;;28.65;14.70;;;;;;;;;;6212286;28;20038;-62
2022/09/05 02:16:55;;;;;;;28.52;15.25;;;;;;;;;;6214147;28;20128;-61
2022/09/05 02:20:25;;;;;;;34.15;15.07;;;;;;;;;;6213671;28;20082;-62
2022/09/05 02:24:02;;;;;;;29.67;14.57;;;;;;;;;;6213948;28;20037;-62
2022/09/05 02:27:33;;;;;;;27.92;14.30;;;;;;;;;;6215203;28;20045;-58
2022/09/05 02:30:58;;;;;;;28.73;15.13;;;;;;;;;;6209309;28;20428;-60
2022/09/05 02:34:32;;;;;;;23.95;14.65;;;;;;;;;;6206115;28;20042;-61
2022/09/05 02:37:58;;;;;;;27.00;14.30;;;;;;;;;;6216666;28;20037;-61
2022/09/05 02:41:31;;;;;;;26.73;14.45;;;;;;;;;;6200432;28;20042;-58
2022/09/05 02:45:18;;;;;;;25.50;14.50;;;;;;;;;;6213716;28;20378;-61
2022/09/05 02:49:04;;;;;;;25.60;15.02;;;;;;;;;;6211753;28;20105;-60
2022/09/05 02:52:25;;;;;;;24.95;14.80;;;;;;;;;;6211815;28;20057;-61
2022/09/05 02:55:53;;;;;;;26.80;14.90;;;;;;;;;;6209275;28;20034;-58
2022/09/05 02:59:37;;;;;;;25.20;14.82;;;;;;;;;;6214065;28;20037;-57
2022/09/05 03:03:10;;;;;;;24.60;14.35;;;;;;;;;;6211802;28;20412;-54
2022/09/05 03:06:41;;;;;;;24.35;14.15;;;;;;;;;;6211068;28;20060;-61
2022/09/05 03:10:20;;;;;;;27.73;13.95;;;;;;;;;;6211509;28;20834;-62
2022/09/05 03:14:11;;;;;;;25.33;14.63;;;;;;;;;;6211419;28;20054;-60
2022/09/05 03:17:47;;;;;;;29.58;15.90;;;;;;;;;;6212907;28;20073;-58
2022/09/05 03:21:25;;;;;;;30.48;15.70;;;;;;;;;;6209590;28;20030;-61
2022/09/05 03:25:02;;;;;;;23.55;14.70;;;;;;;;;;6212624;28;20493;-63
2022/09/05 03:28:59;;;;;;;24.67;15.63;;;;;;;;;;6210626;28;21339;-61
2022/09/05 03:32:52;;;;;;;25.88;15.07;;;;;;;;;;6212305;28;20124;-59
2022/09/05 03:36:54;;;;;;;26.33;13.75;;;;;;;;;;6209124;28;20038;-62
2022/09/05 03:40:36;;;;;;;28.52;14.85;;;;;;;;;;6211934;28;20050;-62
2022/09/05 03:44:25;;;;;;;26.05;14.80;;;;;;;;;;6210541;28;20124;-62
2022/09/05 03:48:13;;;;;;;27.25;15.73;;;;;;;;;;6208803;28;20069;-61
2022/09/05 03:51:54;;;;;;;27.30;16.10;;;;;;;;;;6209473;28;20050;-63
2022/09/05 03:55:35;;;;;;;31.38;16.35;;;;;;;;;;6209954;28;20452;-62
2022/09/05 03:59:20;;;;;;;28.27;15.65;;;;;;;;;;6208091;28;20034;-60
2022/09/05 04:02:57;;;;;;;29.33;15.88;;;;;;;;;;6207627;28;20034;-58
2022/09/05 04:06:26;;;;;;;29.30;14.75;;;;;;;;;;6210586;28;20468;-63
2022/09/05 04:09:55;;;;;;;33.00;15.13;;;;;;;;;;6208081;28;20831;-61
2022/09/05 04:13:26;;;;;;;26.17;15.00;;;;;;;;;;6209183;28;20372;-62
2022/09/05 04:16:50;;;;;;;31.65;15.88;;;;;;;;;;6208378;28;20041;-63
2022/09/05 04:20:33;;;;;;;26.48;14.32;;;;;;;;;;6209810;28;20030;-59
2022/09/05 04:24:17;;;;;;;32.50;15.73;;;;;;;;;;6214986;28;20038;-62
2022/09/05 04:28:04;;;;;;;32.80;15.45;;;;;;;;;;6207732;28;20073;-60
2022/09/05 04:31:41;;;;;;;34.13;15.35;;;;;;;;;;6208958;28;20136;-62
2022/09/05 04:35:07;;;;;;;28.95;14.70;;;;;;;;;;6208417;28;20108;-60
2022/09/05 04:38:38;;;;;;;28.45;15.57;;;;;;;;;;6210520;28;20030;-61
2022/09/05 04:42:03;;;;;;;26.17;14.87;;;;;;;;;;6209556;28;20112;-54
2022/09/05 04:45:24;;;;;;;29.23;16.00;;;;;;;;;;6211639;28;20283;-63
2022/09/05 04:48:57;;;;;;;32.25;16.45;;;;;;;;;;6207239;28;20484;-62
2022/09/05 04:52:31;;;;;;;34.85;15.60;;;;;;;;;;6222139;28;20109;-61
2022/09/05 04:55:54;;;;;;;28.58;15.80;;;;;;;;;;6208943;28;20071;-66
2022/09/05 04:59:30;;;;;;;27.98;15.63;;;;;;;;;;6212836;28;20461;-61
2022/09/05 05:03:17;;;;;;;28.08;15.50;;;;;;;;;;6211384;28;20400;-65
2022/09/05 05:06:56;;;;;;;29.80;16.73;;;;;;;;;;6212561;28;20045;-61
2022/09/05 05:10:36;;;;;;;30.58;16.30;;;;;;;;;;6208457;28;20149;-56
2022/09/05 05:14:01;;;;;;;32.03;16.85;;;;;;;;;;6206860;28;20038;-56
2022/09/05 05:17:38;;;;;;;30.25;15.27;;;;;;;;;;6207933;28;20120;-63
2022/09/05 05:21:16;;;;;;;32.28;15.65;;;;;;;;;;6203015;28;20461;-63
2022/09/05 05:24:43;;;;;;;31.80;15.38;;;;;;;;;;6208400;28;20038;-63
2022/09/05 05:28:08;;;;;;;30.75;16.30;;;;;;;;;;6209425;28;20051;-60
2022/09/05 05:31:31;;;;;;;32.28;17.00;;;;;;;;;;6208806;28;20045;-64
2022/09/05 05:34:56;;;;;;;34.25;18.52;;;;;;;;;;6207461;28;20046;-63
2022/09/05 05:38:15;;;;;;;45.75;22.95;;;;;;;;;;6209400;28;20445;-63
2022/09/05 05:42:01;;;;;;;54.53;25.95;;;;;;;;;;6208424;28;20041;-62
2022/09/05 05:45:26;;;;;;;54.85;26.65;;;;;;;;;;6211287;28;21034;-63
2022/09/05 05:48:46;;;;;;;50.45;24.85;;;;;;;;;;6215014;28;20025;-62
2022/09/05 05:52:24;;;;;;;50.60;24.02;;;;;;;;;;6213332;28;20497;-61
2022/09/05 05:55:57;;;;;;;41.97;21.13;;;;;;;;;;6208638;28;20053;-62
2022/09/05 05:59:39;;;;;;;42.05;19.92;;;;;;;;;;6209378;28;20049;-65
2022/09/05 06:03:23;;;;;;;41.28;19.60;;;;;;;;;;6205136;28;20038;-63
2022/09/05 06:07:20;;;;;;;34.45;17.65;;;;;;;;;;6206047;28;20050;-64
2022/09/05 06:10:56;;;;;;;32.92;16.75;;;;;;;;;;6208578;28;20046;-62
2022/09/05 06:14:54;;;;;;;31.35;16.27;;;;;;;;;;6207463;28;20113;-63
2022/09/05 06:18:34;;;;;;;32.00;16.08;;;;;;;;;;6207792;28;20646;-63
2022/09/05 06:21:53;;;;;;;34.20;16.85;;;;;;;;;;6209395;28;20448;-64
2022/09/05 06:25:41;;;;;;;33.50;16.70;;;;;;;;;;6206203;28;20829;-64
2022/09/05 06:29:27;;;;;;;34.83;16.67;;;;;;;;;;6208351;28;20194;-63
2022/09/05 06:33:09;;;;;;;28.15;16.83;;;;;;;;;;6212663;28;20037;-64
2022/09/05 06:37:05;;;;;;;33.83;17.75;;;;;;;;;;6211317;28;21369;-64
2022/09/05 06:40:34;;;;;;;31.42;15.70;;;;;;;;;;6212987;28;20050;-62
2022/09/05 06:43:56;;;;;;;26.67;14.02;;;;;;;;;;6218147;28;20026;-64
2022/09/05 06:47:18;;;;;;;26.48;14.68;;;;;;;;;;6218059;28;20045;-62
2022/09/05 06:51:08;;;;;;;26.17;14.48;;;;;;;;;;6217168;28;20049;-64
2022/09/05 06:55:06;;;;;;;25.88;14.13;;;;;;;;;;6211253;28;20128;-61
2022/09/05 06:58:37;;;;;;;29.27;15.05;;;;;;;;;;6208633;28;20058;-59
2022/09/05 07:02:20;;;;;;;26.92;14.30;;;;;;;;;;6209754;28;20042;-65
2022/09/05 07:06:07;;;;;;;23.45;13.18;;;;;;;;;;6210175;28;20076;-61
2022/09/05 07:09:33;;;;;;;26.90;13.63;;;;;;;;;;6209695;28;20050;-66
2022/09/05 07:13:02;;;;;;;24.08;12.90;;;;;;;;;;6210894;28;20034;-61
2022/09/05 07:16:41;;;;;;;28.38;12.77;;;;;;;;;;6210515;28;20073;-64
2022/09/05 07:20:12;;;;;;;26.02;12.85;;;;;;;;;;6212128;28;20152;-63
2022/09/05 07:23:31;;;;;;;21.10;12.13;;;;;;;;;;6208161;28;21437;-72
2022/09/05 07:26:52;;;;;;;24.38;12.95;;;;;;;;;;6211365;28;20038;-74
2022/09/05 07:30:12;;;;;;;22.00;12.07;;;;;;;;;;6211438;28;20042;-67
2022/09/05 07:33:33;;;;;;;20.58;12.00;;;;;;;;;;6212450;28;20038;-67
2022/09/05 07:37:01;;;;;;;19.27;12.00;;;;;;;;;;6210793;28;20073;-65
2022/09/05 07:40:22;;;;;;;19.20;12.10;;;;;;;;;;6212436;28;20050;-66
2022/09/05 07:43:45;;;;;;;18.95;11.63;;;;;;;;;;6214185;28;20141;-65
2022/09/05 07:47:09;;;;;;;21.38;11.48;;;;;;;;;;6210529;28;20034;-67
2022/09/05 07:50:30;;;;;;;23.42;11.30;;;;;;;;;;6210082;28;20046;-61
2022/09/05 07:53:52;;;;;;;17.80;11.02;;;;;;;;;;6209339;28;20489;-64
2022/09/05 07:57:20;;;;;;;20.92;11.73;;;;;;;;;;6206729;28;20088;-65
2022/09/05 08:00:41;;;;;;;19.02;11.27;;;;;;;;;;6210216;28;20045;-62
2022/09/05 08:04:00;;;;;;;18.80;11.35;;;;;;;;;;6212875;28;20042;-61
2022/09/05 08:07:30;;;;;;;16.60;11.45;;;;;;;;;;6205876;28;20037;-66
2022/09/05 08:10:54;;;;;;;18.02;11.75;;;;;;;;;;6210639;28;20487;-62
2022/09/05 08:14:39;;;;;;;19.40;13.10;;;;;;;;;;6208796;28;20677;-67
2022/09/05 08:18:17;;;;;;;24.38;12.45;;;;;;;;;;6208748;28;20736;-63
2022/09/05 08:21:42;;;;;;;20.52;11.70;;;;;;;;;;6210086;28;20148;-60
2022/09/05 08:25:12;;;;;;;21.55;12.45;;;;;;;;;;6209286;28;20038;-63
2022/09/05 08:28:52;;;;;;;21.45;12.50;;;;;;;;;;6204880;28;20045;-64
2022/09/05 08:32:15;;;;;;;19.52;12.13;;;;;;;;;;6210018;28;20038;-66
2022/09/05 08:35:45;;;;;;;18.13;12.10;;;;;;;;;;6207400;28;20034;-64
2022/09/05 08:39:06;;;;;;;22.38;12.48;;;;;;;;;;6209622;28;20081;-61
2022/09/05 08:42:37;;;;;;;21.17;12.93;;;;;;;;;;6208219;28;20049;-58
2022/09/05 08:46:05;;;;;;;21.48;13.25;;;;;;;;;;6207187;28;20045;-60
2022/09/05 08:49:49;;;;;;;22.42;12.85;;;;;;;;;;6207956;28;20037;-63
2022/09/05 08:53:28;;;;;;;17.65;12.75;;;;;;;;;;6208467;28;20050;-65
2022/09/05 08:57:05;;;;;;;29.63;17.92;;;;;;;;;;6207135;28;20041;-65
2022/09/05 09:00:31;;;;;;;19.65;11.48;;;;;;;;;;6206165;28;20038;-61
2022/09/05 09:04:16;;;;;;;23.20;13.48;;;;;;;;;;6209234;28;20730;-64
2022/09/05 09:07:48;;;;;;;23.65;13.38;;;;;;;;;;6207429;28;20053;-66
2022/09/05 09:11:15;;;;;;;23.98;14.05;;;;;;;;;;6208282;28;20046;-60
2022/09/05 09:14:55;;;;;;;19.92;12.98;;;;;;;;;;6208614;28;20120;-64
2022/09/05 09:18:17;;;;;;;20.00;12.02;;;;;;;;;;6215164;28;20042;-63
2022/09/05 09:21:57;;;;;;;19.80;11.88;;;;;;;;;;6215610;28;20397;-61
2022/09/05 09:25:48;;;;;;;22.15;13.00;;;;;;;;;;6215483;28;20049;-61
2022/09/05 09:29:09;;;;;;;19.80;10.52;;;;;;;;;;6212365;28;20395;-62
2022/09/05 09:32:29;;;;;;;18.40;11.07;;;;;;;;;;6208926;28;20034;-63
2022/09/05 09:36:03;;;;;;;17.80;12.13;;;;;;;;;;6208422;28;20727;-65
2022/09/05 09:39:35;;;;;;;17.33;11.77;;;;;;;;;;6208388;28;20045;-62
2022/09/05 09:43:13;;;;;;;18.88;12.13;;;;;;;;;;6207758;28;20025;-66
2022/09/05 09:46:44;;;;;;;19.25;11.30;;;;;;;;;;6205453;28;20050;-59
2022/09/05 09:50:21;;;;;;;16.15;10.45;;;;;;;;;;6201993;28;20045;-62
2022/09/05 09:53:49;;;;;;;22.15;12.00;;;;;;;;;;6206965;28;20121;-65
2022/09/05 09:57:43;;;;;;;17.77;12.00;;;;;;;;;;6209068;28;20050;-59
2022/09/05 10:01:39;;;;;;;18.80;12.13;;;;;;;;;;6207876;28;20038;-64
2022/09/05 10:05:31;;;;;;;19.38;12.02;;;;;;;;;;6211255;28;20128;-63
2022/09/05 10:09:14;;;;;;;24.98;13.32;;;;;;;;;;6217949;28;20480;-67
2022/09/05 10:13:03;;;;;;;20.73;12.20;;;;;;;;;;6218401;28;20057;-60
2022/09/05 10:16:25;;;;;;;18.63;12.13;;;;;;;;;;6218869;28;20046;-64
2022/09/05 10:20:09;;;;;;;;;;;;;;;;;;6218999;28;20034;-66
2022/09/05 10:23:58;;;;;;;16.90;11.25;;;;;;;;;;6216628;28;19921;-63
2022/09/05 10:27:36;;;;;;;17.65;11.60;;;;;;;;;;6217576;28;20057;-60
2022/09/05 10:31:17;;;;;;;19.58;11.80;;;;;;;;;;6218847;28;20030;-60
2022/09/05 10:34:46;;;;;;;26.75;16.13;;;;;;;;;;6212665;28;20092;-62
2022/09/05 10:38:31;;;;;;;19.08;12.15;;;;;;;;;;6212781;28;20921;-63
2022/09/05 10:42:05;;;;;;;19.85;11.85;;;;;;;;;;6212781;28;20034;-63
2022/09/05 10:45:33;;;;;;;17.48;11.27;;;;;;;;;;6210051;28;21308;-65
2022/09/05 10:48:57;;;;;;;26.73;15.23;;;;;;;;;;6208948;28;20133;-63
2022/09/05 10:52:27;;;;;;;20.20;12.05;;;;;;;;;;6215487;28;20050;-66
2022/09/05 10:56:05;;;;;;;43.13;24.73;;;;;;;;;;6216589;28;20046;-66
2022/09/05 10:59:30;;;;;;;22.95;14.20;;;;;;;;;;6218016;28;20041;-64
2022/09/05 11:02:56;;;;;;;22.63;12.43;;;;;;;;;;6218888;28;20026;-68
2022/09/05 11:06:21;;;;;;;19.65;11.13;;;;;;;;;;6211237;28;20041;-66
2022/09/05 11:09:50;;;;;;;18.20;11.43;;;;;;;;;;6212731;28;20460;-64
2022/09/05 11:13:29;;;;;;;14.05;9.43;;;;;;;;;;6210475;28;20547;-65
2022/09/05 11:16:52;;;;;;;18.65;11.07;;;;;;;;;;6207970;28;20096;-67
2022/09/05 11:20:23;;;;;;;19.50;11.57;;;;;;;;;;6210063;28;21057;-65
2022/09/05 11:23:52;;;;;;;18.80;11.25;;;;;;;;;;6209611;28;20026;-64
2022/09/05 11:27:28;;;;;;;17.92;10.70;;;;;;;;;;6211522;28;20489;-65
2022/09/05 11:30:55;;;;;;;19.42;10.60;;;;;;;;;;6210495;28;20049;-65
2022/09/05 11:34:48;;;;;;;19.50;11.50;;;;;;;;;;6209633;28;20045;-60
2022/09/05 11:38:07;;;;;;;16.67;10.35;;;;;;;;;;6211302;28;20034;-63
2022/09/05 11:41:29;;;;;;;16.30;9.48;;;;;;;;;;6211856;28;20851;-62
2022/09/05 11:45:11;;;;;;;16.10;10.75;;;;;;;;;;6204692;28;20599;-62
2022/09/05 11:49:04;;;;;;;15.05;9.75;;;;;;;;;;6208573;28;20176;-60
2022/09/05 11:52:58;;;;;;;15.88;8.82;;;;;;;;;;6208768;28;20054;-66
2022/09/05 11:56:38;;;;;;;23.63;13.40;;;;;;;;;;6208522;28;20416;-63
2022/09/05 12:00:11;;;;;;;15.82;9.88;;;;;;;;;;6209471;28;20557;-64
2022/09/05 12:03:35;;;;;;;17.70;12.02;;;;;;;;;;6208939;28;20124;-61
2022/09/05 12:07:13;;;;;;;15.25;9.45;;;;;;;;;;6209791;28;20425;-67
2022/09/05 12:10:41;;;;;;;14.45;8.88;;;;;;;;;;6208516;28;20108;-65
2022/09/05 12:14:26;;;;;;;13.35;9.10;;;;;;;;;;6210520;28;20473;-63
2022/09/05 12:17:48;;;;;;;16.42;9.25;;;;;;;;;;6209147;28;20133;-63
2022/09/05 12:21:16;;;;;;;20.00;11.88;;;;;;;;;;6215059;28;20045;-64
2022/09/05 12:25:13;;;;;;;16.95;10.73;;;;;;;;;;6214982;28;20045;-65
2022/09/05 12:28:51;;;;;;;14.02;8.93;;;;;;;;;;6215052;28;20501;-62
2022/09/05 12:32:19;;;;;;;13.50;9.60;;;;;;;;;;6215679;28;20073;-64
2022/09/05 12:35:38;;;;;;;14.65;9.85;;;;;;;;;;6215043;28;20167;-64
2022/09/05 12:39:27;;;;;;;18.85;10.25;;;;;;;;;;6212948;28;20042;-63
2022/09/05 12:43:07;;;;;;;14.45;8.40;;;;;;;;;;6208524;28;20041;-60
2022/09/05 12:46:44;;;;;;;17.20;9.27;;;;;;;;;;6209513;28;20635;-65
2022/09/05 12:50:12;;;;;;;20.35;10.20;;;;;;;;;;6207719;28;20394;-63
2022/09/05 12:53:43;;;;;;;15.95;9.52;;;;;;;;;;6210384;28;20096;-66
2022/09/05 12:57:14;;;;;;;14.25;9.48;;;;;;;;;;6208625;28;20041;-65
2022/09/05 13:00:44;;;;;;;16.80;9.27;;;;;;;;;;6205536;28;20046;-64
2022/09/05 13:04:22;;;;;;;15.18;8.68;;;;;;;;;;6207143;28;20026;-66
2022/09/05 13:07:49;;;;;;;17.00;8.73;;;;;;;;;;6208489;28;20033;-63
2022/09/05 13:11:11;;;;;;;19.05;9.45;;;;;;;;;;6207616;28;20033;-63
2022/09/05 13:14:35;;;;;;;;;;;;;;;;;;6207642;28;20112;-64
2022/09/05 13:18:15;;;;;;;17.17;9.07;;;;;;;;;;6206907;28;20373;-67
2022/09/05 13:21:39;;;;;;;17.13;10.15;;;;;;;;;;6207981;28;20041;-66
2022/09/05 13:25:07;;;;;;;15.05;9.45;;;;;;;;;;6208442;28;20038;-64
2022/09/05 13:28:57;;;;;;;17.15;10.52;;;;;;;;;;6208245;28;20026;-63
2022/09/05 13:32:29;;;;;;;17.15;9.93;;;;;;;;;;6208133;28;20037;-66
2022/09/05 13:36:02;;;;;;;16.15;10.18;;;;;;;;;;6207330;28;20042;-66
2022/09/05 13:39:27;;;;;;;15.82;10.77;;;;;;;;;;6201322;28;20042;-64
2022/09/05 13:43:09;;;;;;;17.67;11.65;;;;;;;;;;6212175;28;20479;-67
2022/09/05 13:46:40;;;;;;;22.45;12.48;;;;;;;;;;6208349;28;20396;-63
2022/09/05 13:50:18;;;;;;;15.43;10.23;;;;;;;;;;6212105;28;20066;-63
2022/09/05 13:53:50;;;;;;;18.13;9.70;;;;;;;;;;6193884;28;20332;-64
2022/09/05 13:57:18;;;;;;;;;;;;;;;;;;6185104;28;20046;-63
2022/09/05 14:01:05;;;;;;;16.52;10.35;;;;;;;;;;6182332;28;20357;-65
2022/09/05 14:04:48;;;;;;;16.30;9.65;;;;;;;;;;6183580;28;20054;-65
2022/09/05 14:08:21;;;;;;;19.88;10.32;;;;;;;;;;6180480;28;20046;-64
2022/09/05 14:12:12;;;;;;;15.98;10.43;;;;;;;;;;6184231;28;20050;-59
2022/09/05 14:15:41;;;;;;;15.07;9.48;;;;;;;;;;6183267;28;20437;-64
2022/09/05 14:22:53;;;;;;;14.93;9.20;;;;;;;;;;6182134;28;20510;-62
2022/09/05 14:26:16;;;;;;;;;;;;;;;;;;6184123;28;20468;-60
2022/09/05 14:29:39;;;;;;;16.05;10.55;;;;;;;;;;6183270;28;20396;-63
2022/09/05 14:33:29;;;;;;;20.95;13.75;;;;;;;;;;6182674;28;20505;-63
2022/09/05 14:36:34;;;;;;;24.05;14.23;;;;;;;;;;6178562;28;20060;-61
2022/09/05 14:39:56;;;;;;;18.67;11.68;;;;;;;;;;6165707;28;20092;-60
2022/09/05 14:43:34;;;;;;;14.80;10.50;;;;;;;;;;6182163;28;20050;-60
2022/09/05 14:46:49;;;;;;;24.05;14.35;;;;;;;;;;6179135;28;20038;-60
2022/09/05 14:50:23;;;;;;;25.13;14.55;;;;;;;;;;6184185;28;20488;-68
2022/09/05 14:53:26;;;;;;;17.42;9.98;;;;;;;;;;6187699;28;20490;-75
2022/09/05 14:56:35;;;;;;;15.38;10.40;;;;;;;;;;6180758;28;20409;-61
2022/09/05 14:59:40;;;;;;;16.27;10.60;;;;;;;;;;6183128;28;20054;-71
2022/09/05 15:02:45;;;;;;;14.27;9.00;;;;;;;;;;6182703;28;20057;-64
2022/09/05 15:05:49;;;;;;;16.10;10.57;;;;;;;;;;6175130;28;20466;-72
2022/09/05 15:08:58;;;;;;;18.73;10.60;;;;;;;;;;6184957;28;20220;-75
2022/09/05 15:12:13;;;;;;;15.18;10.00;;;;;;;;;;6183104;28;20046;-66
2022/09/05 15:15:34;;;;;;;18.75;9.50;;;;;;;;;;6186516;28;20760;-67
2022/09/05 15:18:42;;;;;;;15.20;9.93;;;;;;;;;;6179669;28;20073;-70
2022/09/05 15:21:43;;;;;;;16.25;10.57;;;;;;;;;;6187099;28;20056;-63
2022/09/05 15:25:04;;;;;;;16.60;10.23;;;;;;;;;;6188661;28;20050;-60
2022/09/05 15:28:07;;;;;;;15.18;10.52;;;;;;;;;;6192359;28;20048;-61
2022/09/05 15:31:24;;;;;;;16.50;10.20;;;;;;;;;;6192054;28;20089;-64
2022/09/05 15:34:30;;;;;;;20.42;11.55;;;;;;;;;;6189156;28;20101;-62
2022/09/05 15:37:39;;;;;;;19.35;10.98;;;;;;;;;;6193989;28;20069;-63
2022/09/05 15:40:39;;;;;;;23.60;13.57;;;;;;;;;;6193753;28;20152;-61
2022/09/05 15:44:00;;;;;;;20.73;11.43;;;;;;;;;;6196123;28;21604;-60
2022/09/05 15:47:04;;;;;;;22.07;11.67;;;;;;;;;;6188540;28;20050;-54
2022/09/05 15:50:10;;;;;;;23.27;13.02;;;;;;;;;;6192021;28;20046;-56
2022/09/05 15:53:49;;;;;;;17.17;10.98;;;;;;;;;;6189979;28;20565;-68
2022/09/05 15:56:52;;;;;;;16.50;10.15;;;;;;;;;;6160196;28;20053;-64
2022/09/05 15:59:56;;;;;;;15.98;9.25;;;;;;;;;;6189860;28;20085;-65
2022/09/05 16:03:00;;;;;;;15.32;9.60;;;;;;;;;;6188231;28;20564;-68
2022/09/05 16:06:04;;;;;;;16.95;11.18;;;;;;;;;;6190546;28;20468;-67
2022/09/05 16:09:30;;;;;;;19.95;10.40;;;;;;;;;;6187773;28;20043;-72
2022/09/05 16:12:43;;;;;;;17.38;10.35;;;;;;;;;;6188232;28;20568;-63
2022/09/05 16:15:49;;;;;;;15.02;9.60;;;;;;;;;;6186214;28;20050;-59
2022/09/05 16:18:53;;;;;;;15.40;9.77;;;;;;;;;;6187176;28;21730;-63
2022/09/05 16:21:57;;;;;;;17.60;10.63;;;;;;;;;;6191079;28;20047;-67
2022/09/05 16:25:06;;;;;;;14.75;8.90;;;;;;;;;;6188295;28;20511;-67
2022/09/05 16:28:17;;;;;;;15.02;9.50;;;;;;;;;;6187175;28;20108;-63
2022/09/05 16:31:30;;;;;;;22.48;11.55;;;;;;;;;;6192509;28;20050;-66
2022/09/05 16:34:37;;;;;;;30.13;14.63;;;;;;;;;;6192655;28;20061;-62
2022/09/05 16:37:40;;;;;;;34.85;15.93;;;;;;;;;;6189780;28;20083;-62
2022/09/05 16:40:48;;;;;;;29.17;14.07;;;;;;;;;;6197988;28;20368;-63
2022/09/05 16:43:56;;;;;;;29.80;13.65;;;;;;;;;;6189411;28;20145;-63
2022/09/05 16:47:31;;;;;;;22.52;12.25;;;;;;;;;;6185694;28;20054;-63
2022/09/05 16:50:54;;;;;;;28.00;13.38;;;;;;;;;;6193723;28;20552;-62
2022/09/05 16:54:09;;;;;;;20.75;11.27;;;;;;;;;;6193806;28;20058;-62
2022/09/05 16:57:21;;;;;;;22.38;11.70;;;;;;;;;;6179902;28;20166;-64
2022/09/05 17:00:22;;;;;;;;;;;;;;;;;;6184852;28;20050;-75
2022/09/05 17:03:35;;;;;;;19.65;10.68;;;;;;;;;;6183570;28;20020;-65
2022/09/05 17:07:06;;;;;;;20.90;11.57;;;;;;;;;;6182864;28;20046;-65
2022/09/05 17:10:10;;;;;;;22.67;11.60;;;;;;;;;;6186899;28;20041;-68
2022/09/05 17:13:13;;;;;;;21.80;11.30;;;;;;;;;;6183536;28;20141;-67
2022/09/05 17:16:40;;;;;;;22.65;11.48;;;;;;;;;;6179336;28;20057;-68
2022/09/05 17:19:46;;;;;;;19.40;11.20;;;;;;;;;;6180385;28;20100;-67
2022/09/05 17:22:52;;;;;;;21.33;11.65;;;;;;;;;;6180775;28;20057;-69
2022/09/05 17:25:59;;;;;;;18.73;11.93;;;;;;;;;;6182308;28;20050;-69
2022/09/05 17:29:06;;;;;;;20.35;11.80;;;;;;;;;;6179325;28;20100;-69
2022/09/05 17:32:14;;;;;;;24.20;12.93;;;;;;;;;;6182443;28;20667;-67
2022/09/05 17:35:31;;;;;;;27.50;12.55;;;;;;;;;;6180022;28;20045;-63
2022/09/05 17:38:46;;;;;;;23.80;12.63;;;;;;;;;;6179397;28;21473;-66
2022/09/05 17:42:14;;;;;;;24.23;12.75;;;;;;;;;;6177427;28;20163;-60
2022/09/05 17:45:34;;;;;;;25.70;12.77;;;;;;;;;;6178775;28;20062;-68
2022/09/05 17:49:02;;;;;;;25.20;12.82;;;;;;;;;;6180614;28;20049;-64
2022/09/05 17:52:17;;;;;;;21.75;12.48;;;;;;;;;;6158103;28;20449;-62
2022/09/05 17:55:17;;;;;;;23.40;12.98;;;;;;;;;;6178679;28;20049;-63
2022/09/05 17:58:29;;;;;;;30.93;13.53;;;;;;;;;;6177334;28;20062;-63
2022/09/05 18:01:32;;;;;;;28.30;12.93;;;;;;;;;;6176842;28;20030;-60
2022/09/05 18:04:38;;;;;;;28.00;14.02;;;;;;;;;;6175431;28;20054;-60
2022/09/05 18:07:40;;;;;;;27.73;14.15;;;;;;;;;;6171650;28;20061;-59
2022/09/05 18:10:59;;;;;;;28.27;14.63;;;;;;;;;;6177809;28;20042;-62
2022/09/05 18:14:11;;;;;;;29.55;15.45;;;;;;;;;;6177622;28;20042;-62
2022/09/05 18:17:46;;;;;;;27.80;14.27;;;;;;;;;;6176404;28;20240;-65
2022/09/05 18:21:05;;;;;;;28.50;14.10;;;;;;;;;;6177001;28;20050;-62
2022/09/05 18:24:12;;;;;;;24.77;13.90;;;;;;;;;;6179990;28;20054;-62
2022/09/05 18:27:34;;;;;;;27.92;14.82;;;;;;;;;;6178632;28;20505;-61
2022/09/05 18:30:36;;;;;;;27.42;15.00;;;;;;;;;;6181863;28;20516;-62
2022/09/05 18:33:37;;;;;;;26.40;14.57;;;;;;;;;;6184739;28;20073;-63
2022/09/05 18:36:39;;;;;;;26.70;14.30;;;;;;;;;;6181229;28;20408;-62
2022/09/05 18:39:40;;;;;;;25.90;14.77;;;;;;;;;;6183342;28;20464;-62
2022/09/05 18:42:43;;;;;;;25.50;15.13;;;;;;;;;;6183073;28;20054;-62
2022/09/05 18:45:48;;;;;;;32.60;15.57;;;;;;;;;;6184102;28;20795;-63
2022/09/05 18:48:58;;;;;;;30.88;14.80;;;;;;;;;;6179737;28;20073;-63
2022/09/05 18:52:06;;;;;;;31.23;14.93;;;;;;;;;;6183190;28;20038;-62
2022/09/05 18:55:19;;;;;;;25.83;15.00;;;;;;;;;;6185150;28;20046;-61
2022/09/05 18:58:27;;;;;;;28.85;15.23;;;;;;;;;;6181612;28;20097;-62
2022/09/05 19:01:35;;;;;;;27.33;15.77;;;;;;;;;;6184558;28;20049;-63
2022/09/05 19:04:52;;;;;;;26.48;14.95;;;;;;;;;;6186671;28;20047;-62
2022/09/05 19:07:55;;;;;;;28.73;16.02;;;;;;;;;;6188524;28;20046;-63
2022/09/05 19:10:59;;;;;;;35.28;16.17;;;;;;;;;;6189714;28;20176;-62
2022/09/05 19:14:17;;;;;;;31.30;16.00;;;;;;;;;;6188226;28;20081;-61
2022/09/05 19:17:33;;;;;;;28.83;16.10;;;;;;;;;;6187070;28;21504;-62
2022/09/05 19:21:06;;;;;;;36.25;16.92;;;;;;;;;;6187170;28;20085;-62
2022/09/05 19:24:11;;;;;;;28.95;16.10;;;;;;;;;;6138887;28;20513;-62
2022/09/05 19:27:15;;;;;;;34.78;17.67;;;;;;;;;;6187601;28;20061;-61
2022/09/05 19:30:33;;;;;;;35.13;18.10;;;;;;;;;;6194675;28;20054;-62
2022/09/05 19:33:35;;;;;;;34.92;18.35;;;;;;;;;;6191821;28;20130;-62
2022/09/05 19:37:00;;;;;;;37.60;17.63;;;;;;;;;;6190653;28;20137;-63
2022/09/05 19:40:04;;;;;;;43.17;18.80;;;;;;;;;;6182954;28;20501;-62
2022/09/05 19:43:05;;;;;;;40.08;18.77;;;;;;;;;;6185853;28;20149;-62
2022/09/05 19:46:11;;;;;;;37.42;18.10;;;;;;;;;;6189546;28;20445;-61
2022/09/05 19:49:12;;;;;;;44.90;19.10;;;;;;;;;;6187771;28;20050;-62
2022/09/05 19:52:15;;;;;;;40.67;19.23;;;;;;;;;;6181534;28;20046;-62
2022/09/05 19:55:19;;;;;;;39.80;19.05;;;;;;;;;;6191989;28;20524;-61
2022/09/05 19:58:21;;;;;;;42.97;19.13;;;;;;;;;;6191384;28;20058;-61
2022/09/05 20:01:24;;;;;;;40.38;18.45;;;;;;;;;;6187230;28;20043;-62
2022/09/05 20:04:30;;;;;;;44.83;19.65;;;;;;;;;;6182912;28;20513;-62
2022/09/05 20:07:32;;;;;;;42.45;19.35;;;;;;;;;;6192580;28;20133;-61
2022/09/05 20:10:34;;;;;;;51.63;19.92;;;;;;;;;;6192528;28;20512;-61
2022/09/05 20:13:35;;;;;;;43.63;19.95;;;;;;;;;;6191796;28;20405;-61
2022/09/05 20:16:35;;;;;;;58.58;28.02;;;;;;;;;;6192317;28;20133;-62